KBDL/BDL METAR and TAF weather

Enter ICAO airport designator
Station Type Date Time Source
KBDL METAR 2024/07/24 10:51 UTC NOAA

KBDL 241051Z 08005KT 10SM OVC013 23/20 A3014 RMK AO2 SLP203 T02280200


Station Type Date Time Source
KBDL Decoded METAR 2024/07/24 10:51 UTC NOAA

BRADLEY INTERNATIONAL AIRPORT , CT, United States (KBDL) 41-56N 072-41W 60M
Jul 24, 2024 - 06:51 AM EDT / 2024.07.24 1051 UTC
Wind: from the E (080 degrees) at 6 MPH (5 KT):0
Visibility: 10 mile(s):0
Sky conditions: overcast
Temperature: 73.0 F (22.8 C)
Dew Point: 68.0 F (20.0 C)
Relative Humidity: 84%
Pressure (altimeter): 30.14 in. Hg (1020 hPa)
ob: KBDL 241051Z 08005KT 10SM OVC013 23/20 A3014 RMK AO2 SLP203 T02280200
cycle: 11

Station Type Date Time Source
KBDL TAF 2024/07/24 12:22 UTC NOAA